Terminal Aerodrome Forecast
Issued by NWS Topeka, KS

Home | Current Version | Previous Version | Text Only | Print | Product List | Glossary On
Versions: 1 2 3 4 5 6 7 8 9 10 11 12 13 14 15 16 17 18 19 20 21 22 23 24 25 26 27 28 29 30 31 32 33 34
000
FTUS43 KTOP 030700 AAA
TAFTOP
TAF AMD
KTOP 030703Z 0307/0406 10005KT P6SM FEW100
     FM030800 15008KT P6SM VCTS SCT025 BKN070CB
      TEMPO 0310/0313 4SM TSRA BR SCT025 BKN050 OVC080CB
     FM031400 17013KT P6SM SCT020 BKN150
     FM031600 18016G22KT P6SM FEW050=

USA.gov is the U.S. government's official web portal to all federal, state and local government web resources and services.